sensor_id;sensor_type;location;lat;lon;timestamp;P1;durP1;ratioP1;P2;durP2;ratioP2
30185;SDS011;31152;49.190;8.122;2023-01-09T00:00:57;4.47;;;2.90;;
30185;SDS011;31152;49.190;8.122;2023-01-09T00:03:23;4.50;;;2.90;;
30185;SDS011;31152;49.190;8.122;2023-01-09T00:05:50;4.97;;;2.97;;
30185;SDS011;31152;49.190;8.122;2023-01-09T00:08:17;4.07;;;3.28;;
30185;SDS011;31152;49.190;8.122;2023-01-09T00:10:44;3.35;;;3.00;;
30185;SDS011;31152;49.190;8.122;2023-01-09T00:13:11;7.43;;;3.42;;
30185;SDS011;31152;49.190;8.122;2023-01-09T00:15:39;5.10;;;2.95;;
30185;SDS011;31152;49.190;8.122;2023-01-09T00:18:06;5.28;;;3.33;;
30185;SDS011;31152;49.190;8.122;2023-01-09T00:20:38;5.20;;;3.42;;
30185;SDS011;31152;49.190;8.122;2023-01-09T00:23:05;5.53;;;3.38;;
30185;SDS011;31152;49.190;8.122;2023-01-09T00:25:32;6.40;;;3.60;;
30185;SDS011;31152;49.190;8.122;2023-01-09T00:28:01;4.43;;;3.38;;
30185;SDS011;31152;49.190;8.122;2023-01-09T00:30:30;5.15;;;3.45;;
30185;SDS011;31152;49.190;8.122;2023-01-09T00:32:57;5.50;;;3.50;;
30185;SDS011;31152;49.190;8.122;2023-01-09T00:35:24;4.68;;;3.53;;
30185;SDS011;31152;49.190;8.122;2023-01-09T00:37:52;4.10;;;3.00;;
30185;SDS011;31152;49.190;8.122;2023-01-09T00:40:19;5.13;;;3.53;;
30185;SDS011;31152;49.190;8.122;2023-01-09T00:42:50;3.88;;;2.90;;
30185;SDS011;31152;49.190;8.122;2023-01-09T00:45:24;3.97;;;2.63;;
30185;SDS011;31152;49.190;8.122;2023-01-09T00:47:57;3.95;;;2.40;;
30185;SDS011;31152;49.190;8.122;2023-01-09T00:50:29;5.28;;;2.45;;
30185;SDS011;31152;49.190;8.122;2023-01-09T00:52:59;3.97;;;2.25;;
30185;SDS011;31152;49.190;8.122;2023-01-09T00:55:28;4.93;;;2.30;;
30185;SDS011;31152;49.190;8.122;2023-01-09T00:57:55;3.53;;;2.28;;
30185;SDS011;31152;49.190;8.122;2023-01-09T01:00:22;4.68;;;2.67;;
30185;SDS011;31152;49.190;8.122;2023-01-09T01:02:49;5.05;;;3.40;;
30185;SDS011;31152;49.190;8.122;2023-01-09T01:05:18;3.78;;;3.00;;
30185;SDS011;31152;49.190;8.122;2023-01-09T01:08:08;4.15;;;3.15;;
30185;SDS011;31152;49.190;8.122;2023-01-09T01:10:36;4.80;;;3.10;;
30185;SDS011;31152;49.190;8.122;2023-01-09T01:13:03;6.38;;;3.35;;
30185;SDS011;31152;49.190;8.122;2023-01-09T01:15:29;4.05;;;3.10;;
30185;SDS011;31152;49.190;8.122;2023-01-09T01:17:59;4.68;;;3.08;;
30185;SDS011;31152;49.190;8.122;2023-01-09T01:20:25;4.40;;;3.10;;
30185;SDS011;31152;49.190;8.122;2023-01-09T01:22:54;4.70;;;2.90;;
30185;SDS011;31152;49.190;8.122;2023-01-09T01:25:21;4.53;;;3.03;;
30185;SDS011;31152;49.190;8.122;2023-01-09T01:27:48;5.00;;;3.10;;
30185;SDS011;31152;49.190;8.122;2023-01-09T01:30:15;4.55;;;2.67;;
30185;SDS011;31152;49.190;8.122;2023-01-09T01:32:42;4.43;;;2.83;;
30185;SDS011;31152;49.190;8.122;2023-01-09T01:35:09;4.32;;;2.65;;
30185;SDS011;31152;49.190;8.122;2023-01-09T01:37:41;4.13;;;2.80;;
30185;SDS011;31152;49.190;8.122;2023-01-09T01:40:10;3.53;;;2.75;;
30185;SDS011;31152;49.190;8.122;2023-01-09T01:42:43;3.97;;;2.60;;
30185;SDS011;31152;49.190;8.122;2023-01-09T01:45:15;4.65;;;2.70;;
30185;SDS011;31152;49.190;8.122;2023-01-09T01:50:41;3.80;;;2.67;;
30185;SDS011;31152;49.190;8.122;2023-01-09T01:53:42;4.32;;;2.60;;
30185;SDS011;31152;49.190;8.122;2023-01-09T01:56:55;4.13;;;2.50;;
30185;SDS011;31152;49.190;8.122;2023-01-09T01:59:02;4.05;;;2.45;;
30185;SDS011;31152;49.190;8.122;2023-01-09T02:01:33;3.70;;;2.58;;
30185;SDS011;31152;49.190;8.122;2023-01-09T02:04:03;3.40;;;2.63;;
30185;SDS011;31152;49.190;8.122;2023-01-09T02:06:33;4.53;;;2.85;;
30185;SDS011;31152;49.190;8.122;2023-01-09T02:09:01;4.82;;;2.67;;
30185;SDS011;31152;49.190;8.122;2023-01-09T02:11:29;6.57;;;2.90;;
30185;SDS011;31152;49.190;8.122;2023-01-09T02:13:56;6.78;;;3.00;;
30185;SDS011;31152;49.190;8.122;2023-01-09T02:16:39;3.13;;;2.50;;
30185;SDS011;31152;49.190;8.122;2023-01-09T02:36:36;1.00;;;0.50;;
30185;SDS011;31152;49.190;8.122;2023-01-09T02:39:29;1.33;;;0.65;;
30185;SDS011;31152;49.190;8.122;2023-01-09T02:42:10;2.05;;;0.50;;
30185;SDS011;31152;49.190;8.122;2023-01-09T02:44:44;4.55;;;0.60;;
30185;SDS011;31152;49.190;8.122;2023-01-09T02:47:56;0.60;;;0.40;;
30185;SDS011;31152;49.190;8.122;2023-01-09T02:50:04;0.82;;;0.50;;
30185;SDS011;31152;49.190;8.122;2023-01-09T02:52:38;1.05;;;0.38;;
30185;SDS011;31152;49.190;8.122;2023-01-09T03:01:29;1.42;;;0.40;;
30185;SDS011;31152;49.190;8.122;2023-01-09T03:07:28;0.60;;;0.30;;
30185;SDS011;31152;49.190;8.122;2023-01-09T03:10:02;0.70;;;0.20;;
30185;SDS011;31152;49.190;8.122;2023-01-09T03:12:37;1.77;;;0.32;;
30185;SDS011;31152;49.190;8.122;2023-01-09T03:15:07;0.50;;;0.20;;
30185;SDS011;31152;49.190;8.122;2023-01-09T03:17:41;0.30;;;0.15;;
30185;SDS011;31152;49.190;8.122;2023-01-09T03:20:11;0.85;;;0.40;;
30185;SDS011;31152;49.190;8.122;2023-01-09T03:23:00;0.40;;;0.20;;
30185;SDS011;31152;49.190;8.122;2023-01-09T03:25:29;0.88;;;0.30;;
30185;SDS011;31152;49.190;8.122;2023-01-09T03:28:00;0.35;;;0.20;;
30185;SDS011;31152;49.190;8.122;2023-01-09T03:30:32;0.60;;;0.30;;
30185;SDS011;31152;49.190;8.122;2023-01-09T03:33:02;0.28;;;0.28;;
30185;SDS011;31152;49.190;8.122;2023-01-09T03:35:28;0.15;;;0.15;;
30185;SDS011;31152;49.190;8.122;2023-01-09T03:37:55;1.17;;;0.30;;
30185;SDS011;31152;49.190;8.122;2023-01-09T03:40:24;0.55;;;0.30;;
30185;SDS011;31152;49.190;8.122;2023-01-09T03:42:50;0.70;;;0.28;;
30185;SDS011;31152;49.190;8.122;2023-01-09T03:45:17;0.43;;;0.35;;
30185;SDS011;31152;49.190;8.122;2023-01-09T03:47:44;0.90;;;0.22;;
30185;SDS011;31152;49.190;8.122;2023-01-09T03:50:10;1.75;;;0.40;;
30185;SDS011;31152;49.190;8.122;2023-01-09T03:52:39;1.02;;;0.38;;
30185;SDS011;31152;49.190;8.122;2023-01-09T03:55:06;1.55;;;0.40;;
30185;SDS011;31152;49.190;8.122;2023-01-09T03:57:33;1.65;;;0.38;;
30185;SDS011;31152;49.190;8.122;2023-01-09T04:00:00;3.63;;;0.40;;
30185;SDS011;31152;49.190;8.122;2023-01-09T04:02:26;1.50;;;0.32;;
30185;SDS011;31152;49.190;8.122;2023-01-09T04:04:53;2.03;;;0.50;;
30185;SDS011;31152;49.190;8.122;2023-01-09T04:07:20;1.52;;;0.30;;
30185;SDS011;31152;49.190;8.122;2023-01-09T04:09:46;3.90;;;0.60;;
30185;SDS011;31152;49.190;8.122;2023-01-09T04:12:13;1.95;;;0.45;;
30185;SDS011;31152;49.190;8.122;2023-01-09T04:14:40;0.90;;;0.40;;
30185;SDS011;31152;49.190;8.122;2023-01-09T04:17:06;4.60;;;0.45;;
30185;SDS011;31152;49.190;8.122;2023-01-09T04:19:33;3.63;;;0.50;;
30185;SDS011;31152;49.190;8.122;2023-01-09T04:22:00;2.78;;;0.60;;
30185;SDS011;31152;49.190;8.122;2023-01-09T04:24:27;3.65;;;0.98;;
30185;SDS011;31152;49.190;8.122;2023-01-09T04:26:57;1.45;;;0.40;;
30185;SDS011;31152;49.190;8.122;2023-01-09T04:29:24;2.65;;;0.65;;
30185;SDS011;31152;49.190;8.122;2023-01-09T04:31:51;0.85;;;0.40;;
30185;SDS011;31152;49.190;8.122;2023-01-09T04:34:20;6.45;;;0.50;;
30185;SDS011;31152;49.190;8.122;2023-01-09T04:36:50;6.53;;;0.63;;
30185;SDS011;31152;49.190;8.122;2023-01-09T04:39:18;1.83;;;0.47;;
30185;SDS011;31152;49.190;8.122;2023-01-09T04:41:45;4.03;;;0.40;;
30185;SDS011;31152;49.190;8.122;2023-01-09T04:44:15;3.88;;;0.50;;
30185;SDS011;31152;49.190;8.122;2023-01-09T04:46:43;3.67;;;0.52;;
30185;SDS011;31152;49.190;8.122;2023-01-09T04:49:13;5.95;;;0.70;;
30185;SDS011;31152;49.190;8.122;2023-01-09T04:51:40;2.22;;;0.60;;
30185;SDS011;31152;49.190;8.122;2023-01-09T04:54:11;8.07;;;1.13;;
30185;SDS011;31152;49.190;8.122;2023-01-09T04:56:37;3.58;;;0.40;;
30185;SDS011;31152;49.190;8.122;2023-01-09T04:59:05;6.88;;;0.60;;
30185;SDS011;31152;49.190;8.122;2023-01-09T05:01:33;2.40;;;0.60;;
30185;SDS011;31152;49.190;8.122;2023-01-09T05:04:03;1.50;;;0.50;;
30185;SDS011;31152;49.190;8.122;2023-01-09T05:06:30;4.25;;;0.70;;
30185;SDS011;31152;49.190;8.122;2023-01-09T05:08:57;6.45;;;0.90;;
30185;SDS011;31152;49.190;8.122;2023-01-09T05:11:23;3.80;;;0.52;;
30185;SDS011;31152;49.190;8.122;2023-01-09T05:13:53;2.60;;;0.40;;
30185;SDS011;31152;49.190;8.122;2023-01-09T05:16:20;2.47;;;0.47;;
30185;SDS011;31152;49.190;8.122;2023-01-09T05:18:49;4.35;;;0.55;;
30185;SDS011;31152;49.190;8.122;2023-01-09T05:21:24;3.40;;;0.75;;
30185;SDS011;31152;49.190;8.122;2023-01-09T05:23:51;2.60;;;0.45;;
30185;SDS011;31152;49.190;8.122;2023-01-09T05:26:19;3.33;;;0.50;;
30185;SDS011;31152;49.190;8.122;2023-01-09T05:28:52;3.75;;;0.60;;
30185;SDS011;31152;49.190;8.122;2023-01-09T05:31:21;3.42;;;0.50;;
30185;SDS011;31152;49.190;8.122;2023-01-09T05:33:49;5.97;;;0.57;;
30185;SDS011;31152;49.190;8.122;2023-01-09T05:36:16;5.25;;;0.70;;
30185;SDS011;31152;49.190;8.122;2023-01-09T05:38:45;4.80;;;0.77;;
30185;SDS011;31152;49.190;8.122;2023-01-09T05:41:12;4.18;;;0.68;;
30185;SDS011;31152;49.190;8.122;2023-01-09T05:43:41;9.48;;;0.65;;
30185;SDS011;31152;49.190;8.122;2023-01-09T05:46:07;5.22;;;0.80;;
30185;SDS011;31152;49.190;8.122;2023-01-09T05:48:36;5.38;;;0.70;;
30185;SDS011;31152;49.190;8.122;2023-01-09T05:51:03;8.15;;;0.65;;
30185;SDS011;31152;49.190;8.122;2023-01-09T05:53:30;5.13;;;0.95;;
30185;SDS011;31152;49.190;8.122;2023-01-09T05:55:57;5.55;;;0.65;;
30185;SDS011;31152;49.190;8.122;2023-01-09T05:58:23;4.95;;;0.73;;
30185;SDS011;31152;49.190;8.122;2023-01-09T06:00:51;5.30;;;1.05;;
30185;SDS011;31152;49.190;8.122;2023-01-09T06:03:18;7.00;;;1.05;;
30185;SDS011;31152;49.190;8.122;2023-01-09T06:05:45;5.82;;;1.00;;
30185;SDS011;31152;49.190;8.122;2023-01-09T06:08:14;9.32;;;1.30;;
30185;SDS011;31152;49.190;8.122;2023-01-09T06:10:41;12.55;;;1.30;;
30185;SDS011;31152;49.190;8.122;2023-01-09T06:13:10;7.40;;;1.00;;
30185;SDS011;31152;49.190;8.122;2023-01-09T06:15:36;6.78;;;1.00;;
30185;SDS011;31152;49.190;8.122;2023-01-09T06:18:05;6.47;;;1.05;;
30185;SDS011;31152;49.190;8.122;2023-01-09T06:20:35;5.05;;;1.27;;
30185;SDS011;31152;49.190;8.122;2023-01-09T06:23:03;5.38;;;0.95;;
30185;SDS011;31152;49.190;8.122;2023-01-09T06:25:30;7.18;;;0.93;;
30185;SDS011;31152;49.190;8.122;2023-01-09T06:27:59;8.90;;;1.00;;
30185;SDS011;31152;49.190;8.122;2023-01-09T06:30:26;5.50;;;1.20;;
30185;SDS011;31152;49.190;8.122;2023-01-09T06:32:55;8.85;;;0.85;;
30185;SDS011;31152;49.190;8.122;2023-01-09T06:35:22;6.93;;;0.80;;
30185;SDS011;31152;49.190;8.122;2023-01-09T06:37:49;5.60;;;0.98;;
30185;SDS011;31152;49.190;8.122;2023-01-09T06:40:16;4.38;;;1.02;;
30185;SDS011;31152;49.190;8.122;2023-01-09T06:42:46;8.95;;;1.20;;
30185;SDS011;31152;49.190;8.122;2023-01-09T06:45:14;8.90;;;1.05;;
30185;SDS011;31152;49.190;8.122;2023-01-09T06:47:41;11.90;;;0.88;;
30185;SDS011;31152;49.190;8.122;2023-01-09T06:50:08;6.20;;;0.73;;
30185;SDS011;31152;49.190;8.122;2023-01-09T06:52:40;8.10;;;1.02;;
30185;SDS011;31152;49.190;8.122;2023-01-09T06:55:07;8.70;;;0.85;;
30185;SDS011;31152;49.190;8.122;2023-01-09T06:57:36;12.32;;;1.00;;
30185;SDS011;31152;49.190;8.122;2023-01-09T07:00:03;5.70;;;0.85;;
30185;SDS011;31152;49.190;8.122;2023-01-09T07:02:30;10.50;;;2.40;;
30185;SDS011;31152;49.190;8.122;2023-01-09T07:04:56;8.02;;;1.35;;
30185;SDS011;31152;49.190;8.122;2023-01-09T07:07:26;10.88;;;1.20;;
30185;SDS011;31152;49.190;8.122;2023-01-09T07:09:52;7.78;;;1.00;;
30185;SDS011;31152;49.190;8.122;2023-01-09T07:12:21;4.93;;;0.88;;
30185;SDS011;31152;49.190;8.122;2023-01-09T07:14:48;10.40;;;1.10;;
30185;SDS011;31152;49.190;8.122;2023-01-09T07:17:15;6.90;;;1.02;;
30185;SDS011;31152;49.190;8.122;2023-01-09T07:19:42;6.43;;;0.90;;
30185;SDS011;31152;49.190;8.122;2023-01-09T07:22:08;8.23;;;1.45;;
30185;SDS011;31152;49.190;8.122;2023-01-09T07:24:38;11.98;;;1.85;;
30185;SDS011;31152;49.190;8.122;2023-01-09T07:27:04;8.18;;;1.13;;
30185;SDS011;31152;49.190;8.122;2023-01-09T07:29:31;7.78;;;1.63;;
30185;SDS011;31152;49.190;8.122;2023-01-09T07:31:58;9.27;;;1.00;;
30185;SDS011;31152;49.190;8.122;2023-01-09T07:34:27;6.93;;;1.17;;
30185;SDS011;31152;49.190;8.122;2023-01-09T07:36:54;8.02;;;1.45;;
30185;SDS011;31152;49.190;8.122;2023-01-09T07:39:21;11.18;;;2.03;;
30185;SDS011;31152;49.190;8.122;2023-01-09T07:41:48;3.55;;;0.90;;
30185;SDS011;31152;49.190;8.122;2023-01-09T07:44:14;9.48;;;1.92;;
30185;SDS011;31152;49.190;8.122;2023-01-09T07:46:41;12.45;;;1.15;;
30185;SDS011;31152;49.190;8.122;2023-01-09T07:49:08;12.77;;;1.42;;
30185;SDS011;31152;49.190;8.122;2023-01-09T07:51:35;10.15;;;1.13;;
30185;SDS011;31152;49.190;8.122;2023-01-09T07:54:08;7.40;;;1.15;;
30185;SDS011;31152;49.190;8.122;2023-01-09T07:56:36;4.13;;;1.10;;
30185;SDS011;31152;49.190;8.122;2023-01-09T07:59:03;8.57;;;1.58;;
30185;SDS011;31152;49.190;8.122;2023-01-09T08:01:29;12.32;;;1.40;;
30185;SDS011;31152;49.190;8.122;2023-01-09T08:03:56;9.95;;;1.13;;
30185;SDS011;31152;49.190;8.122;2023-01-09T08:06:23;8.00;;;1.23;;
30185;SDS011;31152;49.190;8.122;2023-01-09T08:08:52;11.45;;;1.30;;
30185;SDS011;31152;49.190;8.122;2023-01-09T08:11:21;11.15;;;1.20;;
30185;SDS011;31152;49.190;8.122;2023-01-09T08:13:51;9.43;;;1.20;;
30185;SDS011;31152;49.190;8.122;2023-01-09T08:16:17;5.90;;;1.23;;
30185;SDS011;31152;49.190;8.122;2023-01-09T08:18:44;10.77;;;1.33;;
30185;SDS011;31152;49.190;8.122;2023-01-09T08:21:11;8.52;;;1.40;;
30185;SDS011;31152;49.190;8.122;2023-01-09T08:23:40;6.25;;;0.88;;
30185;SDS011;31152;49.190;8.122;2023-01-09T08:26:10;10.40;;;1.50;;
30185;SDS011;31152;49.190;8.122;2023-01-09T08:28:37;11.02;;;1.73;;
30185;SDS011;31152;49.190;8.122;2023-01-09T08:31:06;9.23;;;1.08;;
30185;SDS011;31152;49.190;8.122;2023-01-09T08:33:33;8.18;;;1.58;;
30185;SDS011;31152;49.190;8.122;2023-01-09T08:35:59;9.75;;;1.08;;
30185;SDS011;31152;49.190;8.122;2023-01-09T08:38:26;14.48;;;1.85;;
30185;SDS011;31152;49.190;8.122;2023-01-09T08:40:54;6.82;;;0.95;;
30185;SDS011;31152;49.190;8.122;2023-01-09T08:43:21;8.20;;;1.27;;
30185;SDS011;31152;49.190;8.122;2023-01-09T08:46:11;10.57;;;1.17;;
30185;SDS011;31152;49.190;8.122;2023-01-09T08:49:03;6.72;;;1.08;;
30185;SDS011;31152;49.190;8.122;2023-01-09T08:51:32;10.07;;;1.67;;
30185;SDS011;31152;49.190;8.122;2023-01-09T08:53:59;4.82;;;1.00;;
30185;SDS011;31152;49.190;8.122;2023-01-09T08:56:26;7.03;;;1.10;;
30185;SDS011;31152;49.190;8.122;2023-01-09T08:58:56;8.32;;;1.10;;
30185;SDS011;31152;49.190;8.122;2023-01-09T09:01:25;4.88;;;1.02;;
30185;SDS011;31152;49.190;8.122;2023-01-09T09:03:54;12.27;;;1.77;;
30185;SDS011;31152;49.190;8.122;2023-01-09T09:06:20;10.88;;;1.35;;
30185;SDS011;31152;49.190;8.122;2023-01-09T09:08:47;6.35;;;1.02;;
30185;SDS011;31152;49.190;8.122;2023-01-09T09:11:14;7.40;;;1.25;;
30185;SDS011;31152;49.190;8.122;2023-01-09T09:13:41;7.28;;;1.00;;
30185;SDS011;31152;49.190;8.122;2023-01-09T09:16:07;6.28;;;0.95;;
30185;SDS011;31152;49.190;8.122;2023-01-09T09:18:34;6.95;;;0.82;;
30185;SDS011;31152;49.190;8.122;2023-01-09T09:21:01;6.03;;;1.27;;
30185;SDS011;31152;49.190;8.122;2023-01-09T09:23:27;3.17;;;0.77;;
30185;SDS011;31152;49.190;8.122;2023-01-09T09:25:56;4.50;;;0.70;;
30185;SDS011;31152;49.190;8.122;2023-01-09T09:28:23;6.53;;;1.00;;
30185;SDS011;31152;49.190;8.122;2023-01-09T09:30:50;4.50;;;0.80;;
30185;SDS011;31152;49.190;8.122;2023-01-09T09:33:17;4.85;;;0.98;;
30185;SDS011;31152;49.190;8.122;2023-01-09T09:35:44;5.90;;;1.20;;
30185;SDS011;31152;49.190;8.122;2023-01-09T09:38:11;5.03;;;0.80;;
30185;SDS011;31152;49.190;8.122;2023-01-09T09:52:58;5.30;;;0.90;;
30185;SDS011;31152;49.190;8.122;2023-01-09T09:55:31;9.75;;;1.23;;
30185;SDS011;31152;49.190;8.122;2023-01-09T09:58:22;6.20;;;1.20;;
30185;SDS011;31152;49.190;8.122;2023-01-09T10:00:53;4.20;;;1.23;;
30185;SDS011;31152;49.190;8.122;2023-01-09T10:04:04;5.75;;;1.00;;
30185;SDS011;31152;49.190;8.122;2023-01-09T10:06:27;4.82;;;1.27;;
30185;SDS011;31152;49.190;8.122;2023-01-09T10:15:00;4.10;;;1.15;;
30185;SDS011;31152;49.190;8.122;2023-01-09T10:17:41;5.47;;;1.08;;
30185;SDS011;31152;49.190;8.122;2023-01-09T10:26:25;3.63;;;1.10;;
30185;SDS011;31152;49.190;8.122;2023-01-09T10:29:04;6.75;;;1.13;;
30185;SDS011;31152;49.190;8.122;2023-01-09T10:38:13;5.72;;;0.70;;
30185;SDS011;31152;49.190;8.122;2023-01-09T10:40:53;6.35;;;1.90;;
30185;SDS011;31152;49.190;8.122;2023-01-09T10:43:38;5.10;;;1.80;;
30185;SDS011;31152;49.190;8.122;2023-01-09T10:46:11;4.72;;;0.85;;
30185;SDS011;31152;49.190;8.122;2023-01-09T10:48:44;9.23;;;1.15;;
30185;SDS011;31152;49.190;8.122;2023-01-09T10:51:17;7.95;;;1.10;;
30185;SDS011;31152;49.190;8.122;2023-01-09T10:53:53;7.38;;;1.08;;
30185;SDS011;31152;49.190;8.122;2023-01-09T10:58:59;9.60;;;1.25;;
30185;SDS011;31152;49.190;8.122;2023-01-09T11:01:30;6.03;;;1.40;;
30185;SDS011;31152;49.190;8.122;2023-01-09T11:03:58;7.32;;;1.10;;
30185;SDS011;31152;49.190;8.122;2023-01-09T11:06:44;3.25;;;0.73;;
30185;SDS011;31152;49.190;8.122;2023-01-09T11:09:16;9.75;;;1.42;;
30185;SDS011;31152;49.190;8.122;2023-01-09T11:11:42;3.25;;;0.73;;
30185;SDS011;31152;49.190;8.122;2023-01-09T11:14:29;7.57;;;1.25;;
30185;SDS011;31152;49.190;8.122;2023-01-09T11:16:58;4.10;;;1.20;;
30185;SDS011;31152;49.190;8.122;2023-01-09T11:19:27;8.63;;;1.10;;
30185;SDS011;31152;49.190;8.122;2023-01-09T11:22:13;4.43;;;0.70;;
30185;SDS011;31152;49.190;8.122;2023-01-09T11:24:42;2.88;;;0.90;;
30185;SDS011;31152;49.190;8.122;2023-01-09T11:27:16;4.93;;;1.27;;
30185;SDS011;31152;49.190;8.122;2023-01-09T11:30:04;6.10;;;0.73;;
30185;SDS011;31152;49.190;8.122;2023-01-09T11:32:43;3.50;;;0.95;;
30185;SDS011;31152;49.190;8.122;2023-01-09T11:35:20;3.38;;;0.50;;
30185;SDS011;31152;49.190;8.122;2023-01-09T11:38:04;2.92;;;0.70;;
30185;SDS011;31152;49.190;8.122;2023-01-09T11:40:43;1.60;;;0.40;;
30185;SDS011;31152;49.190;8.122;2023-01-09T11:43:15;2.80;;;0.40;;
30185;SDS011;31152;49.190;8.122;2023-01-09T11:45:51;3.72;;;0.60;;
30185;SDS011;31152;49.190;8.122;2023-01-09T11:48:28;3.50;;;0.63;;
30185;SDS011;31152;49.190;8.122;2023-01-09T11:50:59;2.67;;;0.60;;
30185;SDS011;31152;49.190;8.122;2023-01-09T11:53:28;1.05;;;0.43;;
30185;SDS011;31152;49.190;8.122;2023-01-09T11:56:29;3.42;;;0.68;;
30185;SDS011;31152;49.190;8.122;2023-01-09T11:58:57;1.75;;;0.57;;
30185;SDS011;31152;49.190;8.122;2023-01-09T12:04:22;2.05;;;0.60;;
30185;SDS011;31152;49.190;8.122;2023-01-09T12:13:05;3.67;;;0.77;;
30185;SDS011;31152;49.190;8.122;2023-01-09T12:16:04;1.52;;;0.43;;
30185;SDS011;31152;49.190;8.122;2023-01-09T12:21:42;1.48;;;0.50;;
30185;SDS011;31152;49.190;8.122;2023-01-09T12:30:18;4.22;;;0.50;;
30185;SDS011;31152;49.190;8.122;2023-01-09T12:35:53;0.60;;;0.47;;
30185;SDS011;31152;49.190;8.122;2023-01-09T12:38:30;1.95;;;0.45;;
30185;SDS011;31152;49.190;8.122;2023-01-09T12:41:10;4.00;;;0.73;;
30185;SDS011;31152;49.190;8.122;2023-01-09T12:46:22;1.73;;;0.40;;
30185;SDS011;31152;49.190;8.122;2023-01-09T12:57:15;0.65;;;0.20;;
30185;SDS011;31152;49.190;8.122;2023-01-09T12:59:51;0.95;;;0.20;;
30185;SDS011;31152;49.190;8.122;2023-01-09T13:02:23;1.25;;;0.40;;
30185;SDS011;31152;49.190;8.122;2023-01-09T13:05:41;1.38;;;0.40;;
30185;SDS011;31152;49.190;8.122;2023-01-09T13:08:30;2.40;;;0.40;;
30185;SDS011;31152;49.190;8.122;2023-01-09T13:11:15;2.67;;;0.60;;
30185;SDS011;31152;49.190;8.122;2023-01-09T13:14:03;2.65;;;0.38;;
30185;SDS011;31152;49.190;8.122;2023-01-09T13:16:40;1.00;;;0.45;;
30185;SDS011;31152;49.190;8.122;2023-01-09T13:22:01;2.67;;;0.30;;
30185;SDS011;31152;49.190;8.122;2023-01-09T13:27:23;1.42;;;0.52;;
30185;SDS011;31152;49.190;8.122;2023-01-09T13:30:02;5.03;;;0.50;;
30185;SDS011;31152;49.190;8.122;2023-01-09T13:35:27;3.03;;;0.63;;
30185;SDS011;31152;49.190;8.122;2023-01-09T13:37:53;1.02;;;0.40;;
30185;SDS011;31152;49.190;8.122;2023-01-09T13:42:54;3.75;;;0.98;;
30185;SDS011;31152;49.190;8.122;2023-01-09T13:45:34;4.43;;;0.70;;
30185;SDS011;31152;49.190;8.122;2023-01-09T13:50:43;12.85;;;1.17;;
30185;SDS011;31152;49.190;8.122;2023-01-09T13:56:05;2.70;;;0.70;;
30185;SDS011;31152;49.190;8.122;2023-01-09T14:01:48;3.22;;;0.75;;
30185;SDS011;31152;49.190;8.122;2023-01-09T14:06:40;4.18;;;0.63;;
30185;SDS011;31152;49.190;8.122;2023-01-09T14:09:18;1.55;;;0.70;;
30185;SDS011;31152;49.190;8.122;2023-01-09T14:11:47;2.15;;;0.75;;
30185;SDS011;31152;49.190;8.122;2023-01-09T14:14:29;3.40;;;0.80;;
30185;SDS011;31152;49.190;8.122;2023-01-09T14:16:58;2.05;;;0.60;;
30185;SDS011;31152;49.190;8.122;2023-01-09T14:19:31;7.10;;;0.77;;
30185;SDS011;31152;49.190;8.122;2023-01-09T14:22:01;2.47;;;0.63;;
30185;SDS011;31152;49.190;8.122;2023-01-09T14:24:32;1.92;;;0.47;;
30185;SDS011;31152;49.190;8.122;2023-01-09T14:32:58;7.75;;;0.90;;
30185;SDS011;31152;49.190;8.122;2023-01-09T14:35:27;3.63;;;0.70;;
30185;SDS011;31152;49.190;8.122;2023-01-09T14:38:05;2.15;;;0.63;;
30185;SDS011;31152;49.190;8.122;2023-01-09T14:40:38;4.63;;;0.68;;
30185;SDS011;31152;49.190;8.122;2023-01-09T14:43:58;2.75;;;0.73;;
30185;SDS011;31152;49.190;8.122;2023-01-09T14:46:03;2.97;;;0.80;;
30185;SDS011;31152;49.190;8.122;2023-01-09T14:48:34;2.65;;;0.60;;
30185;SDS011;31152;49.190;8.122;2023-01-09T14:51:05;3.88;;;0.85;;
30185;SDS011;31152;49.190;8.122;2023-01-09T14:53:40;6.57;;;0.73;;
30185;SDS011;31152;49.190;8.122;2023-01-09T14:56:16;6.20;;;1.00;;
30185;SDS011;31152;49.190;8.122;2023-01-09T14:59:03;1.98;;;0.82;;
30185;SDS011;31152;49.190;8.122;2023-01-09T15:01:31;3.95;;;0.60;;
30185;SDS011;31152;49.190;8.122;2023-01-09T15:04:02;3.33;;;0.57;;
30185;SDS011;31152;49.190;8.122;2023-01-09T15:06:32;7.35;;;1.45;;
30185;SDS011;31152;49.190;8.122;2023-01-09T15:09:22;1.52;;;0.43;;
30185;SDS011;31152;49.190;8.122;2023-01-09T15:12:08;4.13;;;0.70;;
30185;SDS011;31152;49.190;8.122;2023-01-09T15:17:18;3.63;;;0.50;;
30185;SDS011;31152;49.190;8.122;2023-01-09T15:19:47;2.15;;;0.70;;
30185;SDS011;31152;49.190;8.122;2023-01-09T15:22:26;3.45;;;0.60;;
30185;SDS011;31152;49.190;8.122;2023-01-09T15:24:56;3.65;;;0.70;;
30185;SDS011;31152;49.190;8.122;2023-01-09T15:27:24;4.65;;;0.80;;
30185;SDS011;31152;49.190;8.122;2023-01-09T15:29:51;5.18;;;0.80;;
30185;SDS011;31152;49.190;8.122;2023-01-09T15:32:24;3.58;;;0.80;;
30185;SDS011;31152;49.190;8.122;2023-01-09T15:34:54;5.78;;;0.70;;
30185;SDS011;31152;49.190;8.122;2023-01-09T15:37:29;6.20;;;0.70;;
30185;SDS011;31152;49.190;8.122;2023-01-09T15:40:04;5.47;;;0.60;;
30185;SDS011;31152;49.190;8.122;2023-01-09T15:42:36;4.88;;;0.50;;
30185;SDS011;31152;49.190;8.122;2023-01-09T15:50:49;4.70;;;0.80;;
30185;SDS011;31152;49.190;8.122;2023-01-09T15:53:28;1.38;;;0.60;;
30185;SDS011;31152;49.190;8.122;2023-01-09T15:58:38;3.70;;;1.05;;
30185;SDS011;31152;49.190;8.122;2023-01-09T16:01:26;6.90;;;0.98;;
30185;SDS011;31152;49.190;8.122;2023-01-09T16:04:17;6.35;;;0.88;;
30185;SDS011;31152;49.190;8.122;2023-01-09T16:06:49;3.90;;;0.70;;
30185;SDS011;31152;49.190;8.122;2023-01-09T16:09:27;2.40;;;0.80;;
30185;SDS011;31152;49.190;8.122;2023-01-09T16:11:55;3.70;;;0.98;;
30185;SDS011;31152;49.190;8.122;2023-01-09T16:14:26;4.20;;;0.90;;
30185;SDS011;31152;49.190;8.122;2023-01-09T16:17:11;4.32;;;0.70;;
30185;SDS011;31152;49.190;8.122;2023-01-09T16:19:50;5.90;;;0.82;;
30185;SDS011;31152;49.190;8.122;2023-01-09T16:22:25;6.00;;;1.02;;
30185;SDS011;31152;49.190;8.122;2023-01-09T16:24:54;4.18;;;0.82;;
30185;SDS011;31152;49.190;8.122;2023-01-09T16:27:24;6.45;;;0.75;;
30185;SDS011;31152;49.190;8.122;2023-01-09T16:29:54;3.75;;;0.70;;
30185;SDS011;31152;49.190;8.122;2023-01-09T16:34:57;2.45;;;0.63;;
30185;SDS011;31152;49.190;8.122;2023-01-09T16:37:42;6.53;;;0.90;;
30185;SDS011;31152;49.190;8.122;2023-01-09T16:42:48;2.50;;;0.50;;
30185;SDS011;31152;49.190;8.122;2023-01-09T16:50:42;3.28;;;0.65;;
30185;SDS011;31152;49.190;8.122;2023-01-09T16:55:52;3.63;;;0.57;;
30185;SDS011;31152;49.190;8.122;2023-01-09T16:58:29;2.50;;;0.65;;
30185;SDS011;31152;49.190;8.122;2023-01-09T17:01:01;2.90;;;0.60;;
30185;SDS011;31152;49.190;8.122;2023-01-09T17:03:28;5.00;;;0.82;;
30185;SDS011;31152;49.190;8.122;2023-01-09T17:05:55;1.95;;;0.73;;
30185;SDS011;31152;49.190;8.122;2023-01-09T17:08:31;2.58;;;0.77;;
30185;SDS011;31152;49.190;8.122;2023-01-09T17:11:02;2.42;;;0.47;;
30185;SDS011;31152;49.190;8.122;2023-01-09T17:13:31;1.52;;;0.50;;
30185;SDS011;31152;49.190;8.122;2023-01-09T17:15:58;1.02;;;0.40;;
30185;SDS011;31152;49.190;8.122;2023-01-09T17:18:25;1.25;;;0.52;;
30185;SDS011;31152;49.190;8.122;2023-01-09T17:20:53;2.28;;;0.68;;
30185;SDS011;31152;49.190;8.122;2023-01-09T17:23:21;2.25;;;0.40;;
30185;SDS011;31152;49.190;8.122;2023-01-09T17:25:53;2.10;;;0.60;;
30185;SDS011;31152;49.190;8.122;2023-01-09T17:28:49;2.40;;;0.70;;
30185;SDS011;31152;49.190;8.122;2023-01-09T17:31:17;2.35;;;0.60;;
30185;SDS011;31152;49.190;8.122;2023-01-09T17:33:44;2.45;;;0.73;;
30185;SDS011;31152;49.190;8.122;2023-01-09T17:38:43;3.63;;;0.60;;
30185;SDS011;31152;49.190;8.122;2023-01-09T17:41:15;1.85;;;0.65;;
30185;SDS011;31152;49.190;8.122;2023-01-09T17:43:41;1.77;;;0.75;;